Sepinggan International Airport
WALL : rendu visible

Aérodrome :











RETROUVEZ-NOUS SUR...

 
LOGIN :

S'inscrire | Disclaimer

   EN    FR    IT 

 









Légende :    VFR   VFR Marginal   IFR   IFR Intensif   IFR Très Intensif
Visi : 
Plafond : 
>= 8 km
>= 3000ft
5 à 8 km
1000 à 3000 ft
1500m à 5 km
500 à 1000 ft
800 à 1500m
200 à 500 ft
< 800m
< 200 ft
Symboles :   Orages  Brouillard  Fortes neiges  Fortes précipitations  Vent > 20 kt






- Altitude de l'aérodrome : 12 ft
- Code IATA : BPN


WALL - Sepinggan International

DERNIER METAR :
  • 280530Z 07011KT 9999 SCT020 30/27 Q1007

METARs EXPIRÉS :
  • 280500Z 08007KT 9999 SCT020 29/26 Q1007
  • 280430Z 08006KT 9999 SCT020 30/26 Q1008
  • 280400Z 07007KT 9999 SCT020 30/26 Q1009
  • 280330Z 07005KT 9999 SCT020 30/26 Q1009
  • 280300Z 36005KT 9999 SCT020 31/24 Q1009

TAF TAF WALL
Valide du 28 à 06h jusqu'au 29 à 12h UTC


280500Z 2806/2912 08006KT 9999 SCT018
TEMPO 2806/2809 FEW018CB SCT018
BECMG 2813/2815 01003KT
PROB40
TEMPO 2815/2818 8000 -RA FEW018CB SCT018



MET'MAP, la Météo Aéronautique d'un coup d'oeil ! - Copyright ORBIFLY Décembre 2007 - Disclaimer

ORBIFLY MET'MAP TEAM :

Programmation & Développement : Alexandra Zaïnal
Sur une idée originale de : Baudouin d'Aumeries
Assistance à la programmation : Marc-Olivier Méhu
Soutien technique & logistique : Manuel Goepfert

Contact : metmap@orbifly.com




SOURCES & CREDITS :

   NOAA       Earth
Advisory